sensor_id;sensor_type;location;lat;lon;timestamp;pressure;altitude;pressure_sealevel;temperature;humidity
79415;BME280;68864;44.972;19.612;2023-06-14T00:01:49;100342.28;;;18.32;57.51
79415;BME280;68864;44.972;19.612;2023-06-14T00:04:16;100332.28;;;18.27;57.57
79415;BME280;68864;44.972;19.612;2023-06-14T00:06:44;100347.53;;;18.33;57.65
79415;BME280;68864;44.972;19.612;2023-06-14T00:09:11;100344.31;;;18.31;57.79
79415;BME280;68864;44.972;19.612;2023-06-14T00:11:41;100340.69;;;18.31;57.93
79415;BME280;68864;44.972;19.612;2023-06-14T00:14:08;100336.31;;;18.26;57.79
79415;BME280;68864;44.972;19.612;2023-06-14T00:16:34;100339.97;;;18.23;57.79
79415;BME280;68864;44.972;19.612;2023-06-14T00:19:02;100344.50;;;18.17;58.01
79415;BME280;68864;44.972;19.612;2023-06-14T00:21:29;100350.19;;;18.13;58.48
79415;BME280;68864;44.972;19.612;2023-06-14T00:23:57;100340.53;;;18.11;58.58
79415;BME280;68864;44.972;19.612;2023-06-14T00:26:24;100331.69;;;18.09;58.85
79415;BME280;68864;44.972;19.612;2023-06-14T00:28:53;100338.56;;;18.08;58.48
79415;BME280;68864;44.972;19.612;2023-06-14T00:31:20;100335.44;;;17.99;58.49
79415;BME280;68864;44.972;19.612;2023-06-14T00:33:47;100341.88;;;17.99;58.69
79415;BME280;68864;44.972;19.612;2023-06-14T00:36:14;100321.81;;;17.90;58.37
79415;BME280;68864;44.972;19.612;2023-06-14T00:38:41;100317.44;;;17.85;58.54
79415;BME280;68864;44.972;19.612;2023-06-14T00:41:08;100327.94;;;17.85;58.53
79415;BME280;68864;44.972;19.612;2023-06-14T00:43:34;100323.97;;;17.79;58.56
79415;BME280;68864;44.972;19.612;2023-06-14T00:46:02;100342.03;;;17.85;58.96
79415;BME280;68864;44.972;19.612;2023-06-14T00:48:29;100301.16;;;17.66;58.83
79415;BME280;68864;44.972;19.612;2023-06-14T00:50:57;100331.63;;;17.78;58.67
79415;BME280;68864;44.972;19.612;2023-06-14T00:53:27;100338.47;;;17.77;58.80
79415;BME280;68864;44.972;19.612;2023-06-14T00:55:54;100335.72;;;17.74;58.84
79415;BME280;68864;44.972;19.612;2023-06-14T00:58:22;100335.31;;;17.72;58.94
79415;BME280;68864;44.972;19.612;2023-06-14T01:00:49;100336.13;;;17.69;58.83
79415;BME280;68864;44.972;19.612;2023-06-14T01:03:18;100332.09;;;17.70;59.16
79415;BME280;68864;44.972;19.612;2023-06-14T01:05:48;100323.28;;;17.68;58.93
79415;BME280;68864;44.972;19.612;2023-06-14T01:08:24;100323.72;;;17.63;59.30
79415;BME280;68864;44.972;19.612;2023-06-14T01:10:54;100329.38;;;17.56;59.23
79415;BME280;68864;44.972;19.612;2023-06-14T01:13:28;100322.19;;;17.51;59.77
79415;BME280;68864;44.972;19.612;2023-06-14T01:15:56;100325.41;;;17.49;59.76
79415;BME280;68864;44.972;19.612;2023-06-14T01:18:24;100313.81;;;17.44;59.93
79415;BME280;68864;44.972;19.612;2023-06-14T01:20:51;100316.59;;;17.47;59.59
79415;BME280;68864;44.972;19.612;2023-06-14T01:23:22;100314.59;;;17.44;59.71
79415;BME280;68864;44.972;19.612;2023-06-14T01:25:50;100298.63;;;17.31;59.71
79415;BME280;68864;44.972;19.612;2023-06-14T01:28:20;100324.31;;;17.40;59.76
79415;BME280;68864;44.972;19.612;2023-06-14T01:30:49;100320.31;;;17.37;59.51
79415;BME280;68864;44.972;19.612;2023-06-14T01:33:19;100325.19;;;17.33;59.70
79415;BME280;68864;44.972;19.612;2023-06-14T01:35:47;100321.16;;;17.31;59.70
79415;BME280;68864;44.972;19.612;2023-06-14T01:38:15;100320.78;;;17.29;59.63
79415;BME280;68864;44.972;19.612;2023-06-14T01:40:44;100318.75;;;17.29;59.60
79415;BME280;68864;44.972;19.612;2023-06-14T01:43:13;100323.19;;;17.30;59.63
79415;BME280;68864;44.972;19.612;2023-06-14T01:45:40;100323.22;;;17.27;59.89
79415;BME280;68864;44.972;19.612;2023-06-14T01:48:08;100319.63;;;17.23;59.74
79415;BME280;68864;44.972;19.612;2023-06-14T01:50:34;100322.59;;;17.05;60.55
79415;BME280;68864;44.972;19.612;2023-06-14T01:53:01;100330.22;;;17.08;60.04
79415;BME280;68864;44.972;19.612;2023-06-14T01:55:28;100333.44;;;17.06;60.32
79415;BME280;68864;44.972;19.612;2023-06-14T01:57:56;100322.19;;;17.03;60.21
79415;BME280;68864;44.972;19.612;2023-06-14T02:00:24;100333.03;;;17.04;59.79
79415;BME280;68864;44.972;19.612;2023-06-14T02:02:51;100339.06;;;17.06;59.79
79415;BME280;68864;44.972;19.612;2023-06-14T02:05:17;100335.88;;;17.04;59.81
79415;BME280;68864;44.972;19.612;2023-06-14T02:07:45;100333.84;;;17.05;59.85
79415;BME280;68864;44.972;19.612;2023-06-14T02:10:12;100336.31;;;16.99;60.17
79415;BME280;68864;44.972;19.612;2023-06-14T02:12:38;100334.44;;;16.79;60.56
79415;BME280;68864;44.972;19.612;2023-06-14T02:15:08;100336.81;;;16.87;60.30
79415;BME280;68864;44.972;19.612;2023-06-14T02:17:35;100338.38;;;16.92;60.21
79415;BME280;68864;44.972;19.612;2023-06-14T02:20:02;100336.09;;;16.73;60.84
79415;BME280;68864;44.972;19.612;2023-06-14T02:22:30;100334.84;;;16.77;60.64
79415;BME280;68864;44.972;19.612;2023-06-14T02:24:57;100334.44;;;16.79;60.60
79415;BME280;68864;44.972;19.612;2023-06-14T02:27:24;100332.81;;;16.78;60.62
79415;BME280;68864;44.972;19.612;2023-06-14T02:29:50;100337.25;;;16.79;60.63
79415;BME280;68864;44.972;19.612;2023-06-14T02:32:19;100329.63;;;16.76;60.66
79415;BME280;68864;44.972;19.612;2023-06-14T02:34:45;100344.53;;;16.73;60.82
79415;BME280;68864;44.972;19.612;2023-06-14T02:37:15;100339.69;;;16.73;60.86
79415;BME280;68864;44.972;19.612;2023-06-14T02:39:42;100336.47;;;16.71;61.09
79415;BME280;68864;44.972;19.612;2023-06-14T02:42:09;100330.84;;;16.75;60.88
79415;BME280;68864;44.972;19.612;2023-06-14T02:44:35;100341.28;;;16.78;60.89
79415;BME280;68864;44.972;19.612;2023-06-14T02:47:02;100334.44;;;16.79;60.99
79415;BME280;68864;44.972;19.612;2023-06-14T02:49:30;100339.75;;;16.66;61.53
79415;BME280;68864;44.972;19.612;2023-06-14T02:51:57;100338.47;;;16.78;60.90
79415;BME280;68864;44.972;19.612;2023-06-14T02:54:24;100346.91;;;16.81;60.86
79415;BME280;68864;44.972;19.612;2023-06-14T02:56:50;100343.69;;;16.79;60.98
79415;BME280;68864;44.972;19.612;2023-06-14T02:59:17;100338.41;;;16.85;60.72
79415;BME280;68864;44.972;19.612;2023-06-14T03:01:44;100349.28;;;16.86;60.59
79415;BME280;68864;44.972;19.612;2023-06-14T03:04:11;100343.63;;;16.86;60.80
79415;BME280;68864;44.972;19.612;2023-06-14T03:06:39;100337.59;;;16.88;60.75
79415;BME280;68864;44.972;19.612;2023-06-14T03:09:06;100350.84;;;16.91;60.71
79415;BME280;68864;44.972;19.612;2023-06-14T03:11:34;100352.84;;;16.94;60.79
79415;BME280;68864;44.972;19.612;2023-06-14T03:14:01;100343.59;;;16.93;60.70
79415;BME280;68864;44.972;19.612;2023-06-14T03:16:29;100336.81;;;16.84;60.57
79415;BME280;68864;44.972;19.612;2023-06-14T03:18:57;100351.59;;;16.98;60.66
79415;BME280;68864;44.972;19.612;2023-06-14T03:21:23;100353.19;;;16.99;60.70
79415;BME280;68864;44.972;19.612;2023-06-14T03:23:52;100358.03;;;16.99;60.83
79415;BME280;68864;44.972;19.612;2023-06-14T03:26:19;100353.59;;;17.01;60.65
79415;BME280;68864;44.972;19.612;2023-06-14T03:28:46;100359.19;;;17.05;60.66
79415;BME280;68864;44.972;19.612;2023-06-14T03:31:13;100354.75;;;17.07;60.70
79415;BME280;68864;44.972;19.612;2023-06-14T03:33:40;100355.53;;;17.12;60.75
79415;BME280;68864;44.972;19.612;2023-06-14T03:36:07;100358.75;;;17.10;60.65
79415;BME280;68864;44.972;19.612;2023-06-14T03:38:34;100368.41;;;17.13;60.64
79415;BME280;68864;44.972;19.612;2023-06-14T03:41:02;100361.16;;;17.12;61.04
79415;BME280;68864;44.972;19.612;2023-06-14T03:43:29;100347.84;;;17.16;60.84
79415;BME280;68864;44.972;19.612;2023-06-14T03:45:56;100355.44;;;17.22;60.93
79415;BME280;68864;44.972;19.612;2023-06-14T03:48:23;100347.78;;;17.26;60.93
79415;BME280;68864;44.972;19.612;2023-06-14T03:50:49;100357.34;;;17.36;60.77
79415;BME280;68864;44.972;19.612;2023-06-14T03:53:16;100360.16;;;17.39;60.72
79415;BME280;68864;44.972;19.612;2023-06-14T03:55:45;100362.44;;;17.52;60.53
79415;BME280;68864;44.972;19.612;2023-06-14T03:58:15;100375.25;;;17.63;60.59
79415;BME280;68864;44.972;19.612;2023-06-14T04:00:42;100365.56;;;17.68;60.81
79415;BME280;68864;44.972;19.612;2023-06-14T04:03:08;100368.34;;;17.71;60.82
79415;BME280;68864;44.972;19.612;2023-06-14T04:05:35;100369.53;;;17.74;60.87
79415;BME280;68864;44.972;19.612;2023-06-14T04:08:02;100372.81;;;17.65;62.02
79415;BME280;68864;44.972;19.612;2023-06-14T04:10:29;100378.34;;;17.76;61.71
79415;BME280;68864;44.972;19.612;2023-06-14T04:12:56;100389.97;;;17.85;61.38
79415;BME280;68864;44.972;19.612;2023-06-14T04:15:24;100387.88;;;17.93;61.43
79415;BME280;68864;44.972;19.612;2023-06-14T04:17:53;100387.47;;;17.94;62.00
79415;BME280;68864;44.972;19.612;2023-06-14T04:20:23;100389.09;;;17.92;62.37
79415;BME280;68864;44.972;19.612;2023-06-14T04:22:50;100403.59;;;17.90;62.58
79415;BME280;68864;44.972;19.612;2023-06-14T04:25:18;100402.38;;;17.91;62.99
79415;BME280;68864;44.972;19.612;2023-06-14T04:27:44;100405.75;;;17.75;64.53
79415;BME280;68864;44.972;19.612;2023-06-14T04:30:12;100390.78;;;17.82;63.40
79415;BME280;68864;44.972;19.612;2023-06-14T04:32:41;100412.38;;;17.99;63.55
79415;BME280;68864;44.972;19.612;2023-06-14T04:35:08;100395.06;;;17.97;63.83
79415;BME280;68864;44.972;19.612;2023-06-14T04:37:36;100407.50;;;18.03;63.89
79415;BME280;68864;44.972;19.612;2023-06-14T04:40:06;100400.63;;;18.08;64.48
79415;BME280;68864;44.972;19.612;2023-06-14T04:42:33;100401.75;;;18.14;64.17
79415;BME280;68864;44.972;19.612;2023-06-14T04:45:02;100401.69;;;18.21;64.44
79415;BME280;68864;44.972;19.612;2023-06-14T04:47:29;100398.94;;;18.14;65.66
79415;BME280;68864;44.972;19.612;2023-06-14T04:49:58;100408.72;;;18.40;64.55
79415;BME280;68864;44.972;19.612;2023-06-14T04:52:25;100419.03;;;18.57;64.12
79415;BME280;68864;44.972;19.612;2023-06-14T04:54:55;100410.53;;;18.60;63.95
79415;BME280;68864;44.972;19.612;2023-06-14T04:57:22;100402.00;;;18.64;64.25
79415;BME280;68864;44.972;19.612;2023-06-14T04:59:51;100404.97;;;18.84;63.77
79415;BME280;68864;44.972;19.612;2023-06-14T05:02:20;100400.03;;;18.91;63.68
79415;BME280;68864;44.972;19.612;2023-06-14T05:04:47;100407.28;;;18.92;63.57
79415;BME280;68864;44.972;19.612;2023-06-14T05:07:15;100411.31;;;18.91;64.28
79415;BME280;68864;44.972;19.612;2023-06-14T05:09:42;100410.50;;;18.91;63.80
79415;BME280;68864;44.972;19.612;2023-06-14T05:12:09;100416.97;;;18.91;64.69
79415;BME280;68864;44.972;19.612;2023-06-14T05:14:36;100414.25;;;18.84;64.76
79415;BME280;68864;44.972;19.612;2023-06-14T05:17:03;100410.47;;;18.94;64.61
79415;BME280;68864;44.972;19.612;2023-06-14T05:19:30;100419.78;;;18.91;64.62
79415;BME280;68864;44.972;19.612;2023-06-14T05:21:56;100415.44;;;18.87;64.75
79415;BME280;68864;44.972;19.612;2023-06-14T05:24:25;100417.06;;;18.84;65.55
79415;BME280;68864;44.972;19.612;2023-06-14T05:26:51;100423.59;;;18.78;65.83
79415;BME280;68864;44.972;19.612;2023-06-14T05:29:18;100419.88;;;18.84;65.91
79415;BME280;68864;44.972;19.612;2023-06-14T05:31:45;100424.13;;;18.99;65.47
79415;BME280;68864;44.972;19.612;2023-06-14T05:34:12;100418.78;;;19.05;65.38
79415;BME280;68864;44.972;19.612;2023-06-14T05:36:38;100406.69;;;19.04;64.92
79415;BME280;68864;44.972;19.612;2023-06-14T05:39:05;100428.00;;;19.36;65.00
79415;BME280;68864;44.972;19.612;2023-06-14T05:41:33;100421.84;;;19.44;64.61
79415;BME280;68864;44.972;19.612;2023-06-14T05:44:01;100428.44;;;19.61;63.99
79415;BME280;68864;44.972;19.612;2023-06-14T05:46:27;100428.59;;;19.77;64.06
79415;BME280;68864;44.972;19.612;2023-06-14T05:48:55;100424.53;;;20.02;62.79
79415;BME280;68864;44.972;19.612;2023-06-14T05:51:22;100423.41;;;20.19;62.16
79415;BME280;68864;44.972;19.612;2023-06-14T05:53:50;100435.81;;;20.25;62.19
79415;BME280;68864;44.972;19.612;2023-06-14T05:56:17;100430.16;;;20.25;62.52
79415;BME280;68864;44.972;19.612;2023-06-14T05:58:46;100433.09;;;20.41;62.31
79415;BME280;68864;44.972;19.612;2023-06-14T06:01:13;100428.06;;;20.52;61.67
79415;BME280;68864;44.972;19.612;2023-06-14T06:03:40;100428.09;;;20.69;61.72
79415;BME280;68864;44.972;19.612;2023-06-14T06:06:06;100431.34;;;21.07;60.57
79415;BME280;68864;44.972;19.612;2023-06-14T06:08:33;100444.28;;;21.27;60.09
79415;BME280;68864;44.972;19.612;2023-06-14T06:11:00;100442.69;;;21.42;59.67
79415;BME280;68864;44.972;19.612;2023-06-14T06:13:27;100444.81;;;21.55;59.03
79415;BME280;68864;44.972;19.612;2023-06-14T06:15:55;100445.72;;;21.68;59.00
79415;BME280;68864;44.972;19.612;2023-06-14T06:18:22;100449.91;;;21.79;58.48
79415;BME280;68864;44.972;19.612;2023-06-14T06:20:49;100444.75;;;21.91;58.91
79415;BME280;68864;44.972;19.612;2023-06-14T06:23:16;100459.50;;;22.18;57.91
79415;BME280;68864;44.972;19.612;2023-06-14T06:25:43;100442.44;;;22.18;58.21
79415;BME280;68864;44.972;19.612;2023-06-14T06:28:10;100447.56;;;22.39;57.60
79415;BME280;68864;44.972;19.612;2023-06-14T06:30:37;100446.84;;;22.64;57.12
79415;BME280;68864;44.972;19.612;2023-06-14T06:33:05;100449.75;;;22.77;56.77
79415;BME280;68864;44.972;19.612;2023-06-14T06:35:32;100442.41;;;22.92;56.91
79415;BME280;68864;44.972;19.612;2023-06-14T06:37:59;100446.09;;;23.18;56.12
79415;BME280;68864;44.972;19.612;2023-06-14T06:40:26;100441.00;;;23.25;55.29
79415;BME280;68864;44.972;19.612;2023-06-14T06:42:53;100440.28;;;23.21;54.78
79415;BME280;68864;44.972;19.612;2023-06-14T06:45:20;100441.09;;;23.34;54.17
79415;BME280;68864;44.972;19.612;2023-06-14T06:47:48;100450.19;;;23.42;53.71
79415;BME280;68864;44.972;19.612;2023-06-14T06:50:17;100453.66;;;23.50;52.42
79415;BME280;68864;44.972;19.612;2023-06-14T06:52:44;100449.97;;;24.00;52.19
79415;BME280;68864;44.972;19.612;2023-06-14T06:55:11;100451.50;;;24.13;51.07
79415;BME280;68864;44.972;19.612;2023-06-14T06:57:38;100459.41;;;23.97;51.40
79415;BME280;68864;44.972;19.612;2023-06-14T07:00:06;100455.00;;;23.83;47.83
79415;BME280;68864;44.972;19.612;2023-06-14T07:02:35;100458.75;;;23.80;49.27
79415;BME280;68864;44.972;19.612;2023-06-14T07:05:01;100458.25;;;24.07;49.22
79415;BME280;68864;44.972;19.612;2023-06-14T07:07:30;100459.72;;;24.24;48.91
79415;BME280;68864;44.972;19.612;2023-06-14T07:09:57;100451.88;;;24.50;48.17
79415;BME280;68864;44.972;19.612;2023-06-14T07:12:24;100448.41;;;25.20;46.29
79415;BME280;68864;44.972;19.612;2023-06-14T07:14:51;100456.97;;;25.20;44.63
79415;BME280;68864;44.972;19.612;2023-06-14T07:17:17;100457.38;;;25.31;43.54
79415;BME280;68864;44.972;19.612;2023-06-14T07:19:44;100472.88;;;25.00;43.33
79415;BME280;68864;44.972;19.612;2023-06-14T07:22:11;100463.94;;;24.54;44.25
79415;BME280;68864;44.972;19.612;2023-06-14T07:24:39;100453.41;;;26.82;39.92
79415;BME280;68864;44.972;19.612;2023-06-14T07:27:07;100462.28;;;28.67;36.05
79415;BME280;68864;44.972;19.612;2023-06-14T07:29:34;100458.28;;;31.18;31.09
79415;BME280;68864;44.972;19.612;2023-06-14T07:32:01;100457.66;;;32.08;29.74
79415;BME280;68864;44.972;19.612;2023-06-14T07:34:27;100454.03;;;32.19;29.82
79415;BME280;68864;44.972;19.612;2023-06-14T07:36:54;100466.41;;;36.17;23.53
79415;BME280;68864;44.972;19.612;2023-06-14T07:39:21;100441.72;;;34.06;26.07
79415;BME280;68864;44.972;19.612;2023-06-14T07:41:50;100453.22;;;31.70;29.78
79415;BME280;68864;44.972;19.612;2023-06-14T07:44:16;100462.28;;;29.99;31.97
79415;BME280;68864;44.972;19.612;2023-06-14T07:46:43;100458.34;;;28.64;33.11
79415;BME280;68864;44.972;19.612;2023-06-14T07:49:11;100469.16;;;28.45;35.64
79415;BME280;68864;44.972;19.612;2023-06-14T07:51:38;100465.72;;;29.68;33.78
79415;BME280;68864;44.972;19.612;2023-06-14T07:54:05;100466.50;;;30.18;30.93
79415;BME280;68864;44.972;19.612;2023-06-14T07:56:32;100462.28;;;29.05;33.06
79415;BME280;68864;44.972;19.612;2023-06-14T07:59:00;100457.81;;;28.51;34.24
79415;BME280;68864;44.972;19.612;2023-06-14T08:01:27;100451.53;;;27.90;35.60
79415;BME280;68864;44.972;19.612;2023-06-14T08:03:54;100468.72;;;27.48;36.66
79415;BME280;68864;44.972;19.612;2023-06-14T08:06:21;100456.50;;;27.39;37.16
79415;BME280;68864;44.972;19.612;2023-06-14T08:08:47;100469.13;;;27.23;36.10
79415;BME280;68864;44.972;19.612;2023-06-14T08:11:14;100470.38;;;27.13;37.42
79415;BME280;68864;44.972;19.612;2023-06-14T08:13:41;100468.84;;;27.03;37.00
79415;BME280;68864;44.972;19.612;2023-06-14T08:16:09;100473.16;;;26.89;36.76
79415;BME280;68864;44.972;19.612;2023-06-14T08:18:36;100472.97;;;26.93;37.00
79415;BME280;68864;44.972;19.612;2023-06-14T08:21:02;100477.75;;;26.77;35.50
79415;BME280;68864;44.972;19.612;2023-06-14T08:23:29;100476.91;;;27.13;36.42
79415;BME280;68864;44.972;19.612;2023-06-14T08:25:56;100480.09;;;27.06;35.36
79415;BME280;68864;44.972;19.612;2023-06-14T08:28:24;100459.75;;;26.86;34.53
79415;BME280;68864;44.972;19.612;2023-06-14T08:30:51;100476.81;;;26.89;34.42
79415;BME280;68864;44.972;19.612;2023-06-14T08:33:18;100481.25;;;26.63;33.00
79415;BME280;68864;44.972;19.612;2023-06-14T08:35:45;100472.78;;;26.87;33.75
79415;BME280;68864;44.972;19.612;2023-06-14T08:38:12;100469.97;;;26.50;34.66
79415;BME280;68864;44.972;19.612;2023-06-14T08:40:40;100477.56;;;26.54;34.00
79415;BME280;68864;44.972;19.612;2023-06-14T08:43:07;100455.34;;;26.58;33.74
79415;BME280;68864;44.972;19.612;2023-06-14T08:45:34;100469.16;;;26.77;34.46
79415;BME280;68864;44.972;19.612;2023-06-14T08:48:02;100473.31;;;26.58;34.64
79415;BME280;68864;44.972;19.612;2023-06-14T08:50:32;100481.19;;;26.27;33.99
79415;BME280;68864;44.972;19.612;2023-06-14T08:53:00;100477.84;;;26.19;34.72
79415;BME280;68864;44.972;19.612;2023-06-14T08:55:28;100482.97;;;26.24;34.08
79415;BME280;68864;44.972;19.612;2023-06-14T08:57:57;100476.22;;;26.09;34.78
79415;BME280;68864;44.972;19.612;2023-06-14T09:00:24;100472.41;;;26.03;34.91
79415;BME280;68864;44.972;19.612;2023-06-14T09:02:52;100476.28;;;26.27;35.28
79415;BME280;68864;44.972;19.612;2023-06-14T09:05:23;100470.44;;;26.58;34.24
79415;BME280;68864;44.972;19.612;2023-06-14T09:07:52;100472.31;;;26.79;34.30
79415;BME280;68864;44.972;19.612;2023-06-14T09:10:22;100474.09;;;26.68;31.28
79415;BME280;68864;44.972;19.612;2023-06-14T09:12:51;100483.47;;;26.77;32.39
79415;BME280;68864;44.972;19.612;2023-06-14T09:15:18;100468.84;;;26.30;32.98
79415;BME280;68864;44.972;19.612;2023-06-14T09:17:45;100465.28;;;26.17;33.34
79415;BME280;68864;44.972;19.612;2023-06-14T09:20:12;100459.25;;;26.05;32.56
79415;BME280;68864;44.972;19.612;2023-06-14T09:22:43;100462.00;;;26.27;33.17
79415;BME280;68864;44.972;19.612;2023-06-14T09:25:12;100467.19;;;26.10;32.30
79415;BME280;68864;44.972;19.612;2023-06-14T09:27:41;100465.13;;;26.20;33.26
79415;BME280;68864;44.972;19.612;2023-06-14T09:30:09;100459.50;;;26.38;32.89
79415;BME280;68864;44.972;19.612;2023-06-14T09:32:37;100438.53;;;26.32;32.42
79415;BME280;68864;44.972;19.612;2023-06-14T09:35:05;100454.25;;;26.37;32.72
79415;BME280;68864;44.972;19.612;2023-06-14T09:37:33;100451.06;;;26.62;33.03
79415;BME280;68864;44.972;19.612;2023-06-14T09:40:01;100460.13;;;26.52;33.21
79415;BME280;68864;44.972;19.612;2023-06-14T09:42:31;100452.66;;;26.45;32.61
79415;BME280;68864;44.972;19.612;2023-06-14T09:45:02;100456.41;;;26.15;32.75
79415;BME280;68864;44.972;19.612;2023-06-14T09:47:30;100450.84;;;26.20;33.28
79415;BME280;68864;44.972;19.612;2023-06-14T09:49:56;100445.44;;;26.13;33.21
79415;BME280;68864;44.972;19.612;2023-06-14T09:52:24;100453.28;;;26.40;33.48
79415;BME280;68864;44.972;19.612;2023-06-14T09:54:52;100438.97;;;26.40;33.44
79415;BME280;68864;44.972;19.612;2023-06-14T09:57:21;100459.63;;;26.53;33.76
79415;BME280;68864;44.972;19.612;2023-06-14T09:59:53;100454.25;;;26.37;32.27
79415;BME280;68864;44.972;19.612;2023-06-14T10:02:24;100434.34;;;26.15;32.32
79415;BME280;68864;44.972;19.612;2023-06-14T10:04:56;100456.69;;;26.07;32.93
79415;BME280;68864;44.972;19.612;2023-06-14T10:07:26;100451.66;;;26.11;33.63
79415;BME280;68864;44.972;19.612;2023-06-14T10:09:55;100445.00;;;26.33;33.24
79415;BME280;68864;44.972;19.612;2023-06-14T10:12:23;100448.19;;;26.35;33.49
79415;BME280;68864;44.972;19.612;2023-06-14T10:14:51;100447.50;;;26.22;33.06
79415;BME280;68864;44.972;19.612;2023-06-14T10:17:24;100442.50;;;26.26;33.30
79415;BME280;68864;44.972;19.612;2023-06-14T10:19:55;100441.38;;;26.50;32.42
79415;BME280;68864;44.972;19.612;2023-06-14T10:22:26;100442.00;;;26.55;32.63
79415;BME280;68864;44.972;19.612;2023-06-14T10:24:55;100449.16;;;26.59;32.92
79415;BME280;68864;44.972;19.612;2023-06-14T10:27:22;100439.91;;;26.73;33.45
79415;BME280;68864;44.972;19.612;2023-06-14T10:30:06;100446.44;;;26.74;33.37
79415;BME280;68864;44.972;19.612;2023-06-14T10:32:34;100449.63;;;26.67;33.33
79415;BME280;68864;44.972;19.612;2023-06-14T10:35:04;100422.63;;;26.59;33.10
79415;BME280;68864;44.972;19.612;2023-06-14T10:37:32;100421.69;;;26.43;34.20
79415;BME280;68864;44.972;19.612;2023-06-14T10:39:59;100433.03;;;26.07;34.65
79415;BME280;68864;44.972;19.612;2023-06-14T10:42:27;100424.91;;;25.87;34.29
79415;BME280;68864;44.972;19.612;2023-06-14T10:44:55;100417.81;;;25.92;34.89
79415;BME280;68864;44.972;19.612;2023-06-14T10:47:26;100425.44;;;26.04;34.42
79415;BME280;68864;44.972;19.612;2023-06-14T10:49:53;100439.09;;;26.09;34.55
79415;BME280;68864;44.972;19.612;2023-06-14T10:52:23;100422.91;;;26.06;34.32
79415;BME280;68864;44.972;19.612;2023-06-14T10:55:06;100426.53;;;26.06;34.35
79415;BME280;68864;44.972;19.612;2023-06-14T10:57:37;100427.97;;;25.93;34.61
79415;BME280;68864;44.972;19.612;2023-06-14T11:00:07;100423.66;;;25.88;35.32
79415;BME280;68864;44.972;19.612;2023-06-14T11:05:53;100414.16;;;25.91;35.42
79415;BME280;68864;44.972;19.612;2023-06-14T11:11:32;100416.09;;;26.13;34.99
79415;BME280;68864;44.972;19.612;2023-06-14T11:14:00;100415.13;;;26.06;33.98
79415;BME280;68864;44.972;19.612;2023-06-14T11:16:27;100405.25;;;25.89;34.41
79415;BME280;68864;44.972;19.612;2023-06-14T11:18:55;100411.31;;;26.09;35.04
79415;BME280;68864;44.972;19.612;2023-06-14T11:21:24;100425.94;;;26.11;34.35
79415;BME280;68864;44.972;19.612;2023-06-14T11:23:56;100418.09;;;25.94;34.75
79415;BME280;68864;44.972;19.612;2023-06-14T11:26:27;100425.06;;;25.75;34.51
79415;BME280;68864;44.972;19.612;2023-06-14T11:28:58;100427.81;;;25.96;34.87
79415;BME280;68864;44.972;19.612;2023-06-14T11:31:26;100427.59;;;25.82;34.46
79415;BME280;68864;44.972;19.612;2023-06-14T11:33:53;100418.53;;;25.74;34.97
79415;BME280;68864;44.972;19.612;2023-06-14T11:36:20;100414.13;;;25.82;35.43
79415;BME280;68864;44.972;19.612;2023-06-14T11:38:49;100407.16;;;25.83;34.82
79415;BME280;68864;44.972;19.612;2023-06-14T11:41:15;100406.53;;;25.88;35.57
79415;BME280;68864;44.972;19.612;2023-06-14T11:43:42;100404.56;;;25.67;34.74
79415;BME280;68864;44.972;19.612;2023-06-14T11:46:13;100390.47;;;25.73;34.54
79415;BME280;68864;44.972;19.612;2023-06-14T11:48:42;100382.41;;;25.89;34.57
79415;BME280;68864;44.972;19.612;2023-06-14T11:51:09;100387.31;;;25.89;35.74
79415;BME280;68864;44.972;19.612;2023-06-14T11:53:36;100386.88;;;26.08;35.02
79415;BME280;68864;44.972;19.612;2023-06-14T11:56:05;100394.00;;;26.13;35.95
79415;BME280;68864;44.972;19.612;2023-06-14T11:58:32;100368.44;;;26.00;35.63
79415;BME280;68864;44.972;19.612;2023-06-14T12:00:59;100389.53;;;25.76;35.43
79415;BME280;68864;44.972;19.612;2023-06-14T12:03:26;100390.31;;;25.76;35.68
79415;BME280;68864;44.972;19.612;2023-06-14T12:06:07;100372.84;;;25.65;35.72
79415;BME280;68864;44.972;19.612;2023-06-14T12:08:35;100378.91;;;25.76;35.99
79415;BME280;68864;44.972;19.612;2023-06-14T12:11:06;100382.69;;;25.73;36.39
79415;BME280;68864;44.972;19.612;2023-06-14T12:13:34;100381.28;;;25.78;36.35
79415;BME280;68864;44.972;19.612;2023-06-14T12:16:01;100379.19;;;25.69;36.48
79415;BME280;68864;44.972;19.612;2023-06-14T12:18:32;100374.59;;;25.62;36.18
79415;BME280;68864;44.972;19.612;2023-06-14T12:20:59;100373.78;;;25.62;36.20
79415;BME280;68864;44.972;19.612;2023-06-14T12:23:38;100366.19;;;25.59;36.20
79415;BME280;68864;44.972;19.612;2023-06-14T12:26:07;100366.91;;;25.50;37.69
79415;BME280;68864;44.972;19.612;2023-06-14T12:28:33;100366.28;;;25.46;37.48
79415;BME280;68864;44.972;19.612;2023-06-14T12:31:00;100365.09;;;25.25;38.62
79415;BME280;68864;44.972;19.612;2023-06-14T12:33:27;100361.34;;;25.38;38.36
79415;BME280;68864;44.972;19.612;2023-06-14T12:35:55;100362.72;;;25.33;38.20
79415;BME280;68864;44.972;19.612;2023-06-14T12:38:22;100354.44;;;25.17;39.49
79415;BME280;68864;44.972;19.612;2023-06-14T12:40:49;100360.09;;;25.08;38.66
79415;BME280;68864;44.972;19.612;2023-06-14T12:43:17;100355.00;;;25.03;38.76
79415;BME280;68864;44.972;19.612;2023-06-14T12:45:44;100359.88;;;24.93;38.85
79415;BME280;68864;44.972;19.612;2023-06-14T12:48:11;100367.56;;;24.83;39.74
79415;BME280;68864;44.972;19.612;2023-06-14T12:50:37;100361.78;;;24.74;39.79